Terminal Aerodrome Forecast
Issued by NWS Upton, NY

Current Version | Previous Version | Text Only | Print | Product List | Glossary On
Versions: 1 2 3 4 5 6 7 8 9 10 11 12 13 14 15 16 17 18 19 20 21 22 23 24 25 26 27 28 29
000 FTUS41 KOKX 301938 AAA TAFJFK TAF AMD KJFK 301938Z 3020/0124 18012KT P6SM SCT050 FM302100 18008KT P6SM SCT200 FM010900 12006KT P6SM OVC100 FM011100 11008KT P6SM -RA OVC060 FM011500 10010KT 3SM -RA OVC040 FM011800 10011KT 2SM -RA OVC020 FM012200 06014KT 2SM -RA OVC008=

USA.gov is the U.S. government's official web portal to all federal, state and local government web resources and services.